Time;durP1;ratioP1;P1;durP2;ratioP2;P2;SDS_P1;SDS_P2;PMS_P1;PMS_P2;Temp;Humidity;BMP_temperature;BMP_pressure;BME280_temperature;BME280_humidity;BME280_pressure;Samples;Min_cycle;Max_cycle;Signal;HPM_P1;HPM_P2
2023/07/07 00:00:45;;;;;;;6.10;2.83;;;18.50;60.80;;;;;;5015711;28;20581;-75
2023/07/07 00:03:11;;;;;;;3.43;2.20;;;18.50;61.30;;;;;;5032396;28;20583;-75
2023/07/07 00:05:37;;;;;;;3.97;2.80;;;18.50;61.50;;;;;;5033922;28;20604;-75
2023/07/07 00:08:04;;;;;;;4.70;3.17;;;18.40;61.80;;;;;;5031725;28;20257;-75
2023/07/07 00:10:29;;;;;;;5.30;3.27;;;18.40;62.30;;;;;;5032225;28;20176;-75
2023/07/07 00:12:55;;;;;;;3.63;2.57;;;18.40;62.70;;;;;;5031774;28;20679;-75
2023/07/07 00:15:21;;;;;;;4.83;2.80;;;18.30;63.00;;;;;;5031909;28;20213;-75
2023/07/07 00:17:47;;;;;;;4.30;2.30;;;18.30;63.50;;;;;;5031444;28;20584;-75
2023/07/07 00:20:14;;;;;;;4.67;2.83;;;18.20;63.80;;;;;;5015658;28;20178;-75
2023/07/07 00:22:40;;;;;;;4.83;3.10;;;18.20;64.20;;;;;;5032840;28;20931;-75
2023/07/07 00:25:07;;;;;;;3.20;2.10;;;18.20;64.60;;;;;;5031891;28;20630;-75
2023/07/07 00:27:33;;;;;;;5.40;2.73;;;18.20;65.10;;;;;;5032620;28;20638;-75
2023/07/07 00:30:00;;;;;;;4.20;2.57;;;18.20;65.70;;;;;;5032242;28;20581;-75
2023/07/07 00:32:29;;;;;;;5.03;2.30;;;18.10;66.00;;;;;;5015104;28;20638;-74
2023/07/07 00:34:54;;;;;;;4.70;2.63;;;18.10;66.50;;;;;;5015551;28;20694;-75
2023/07/07 00:37:20;;;;;;;4.13;2.70;;;18.10;66.90;;;;;;5031227;28;20600;-75
2023/07/07 00:39:46;;;;;;;4.07;2.40;;;18.10;67.30;;;;;;5031699;28;20173;-75
2023/07/07 00:42:11;;;;;;;4.43;2.33;;;18.10;68.10;;;;;;5031617;28;20177;-75
2023/07/07 00:45:05;;;;;;;4.93;2.07;;;18.10;68.20;;;;;;5031310;28;20631;-75
2023/07/07 00:47:33;;;;;;;6.73;2.50;;;18.00;69.20;;;;;;5031289;28;20192;-74
2023/07/07 00:49:59;;;;;;;3.40;2.43;;;18.10;68.70;;;;;;5031783;28;20579;-75
2023/07/07 00:52:25;;;;;;;3.67;1.87;;;18.10;69.40;;;;;;5031268;28;20576;-75
2023/07/07 00:54:51;;;;;;;4.37;2.17;;;18.10;69.80;;;;;;5032746;28;20640;-75
2023/07/07 00:57:17;;;;;;;2.00;1.63;;;18.10;70.20;;;;;;5030821;28;20635;-75
2023/07/07 00:59:46;;;;;;;3.27;1.80;;;18.10;70.30;;;;;;5031038;28;20576;-75
2023/07/07 01:02:15;;;;;;;3.60;1.60;;;18.10;71.00;;;;;;5014510;28;20576;-74
2023/07/07 01:04:48;;;;;;;7.10;2.30;;;18.10;71.60;;;;;;5031216;28;21013;-74
2023/07/07 01:07:21;;;;;;;3.50;2.07;;;18.10;72.70;;;;;;5032248;28;20611;-74
2023/07/07 01:09:47;;;;;;;3.07;2.00;;;18.10;72.50;;;;;;5032570;28;20565;-74
2023/07/07 01:12:14;;;;;;;2.80;1.50;;;18.10;72.70;;;;;;5031053;28;20581;-75
2023/07/07 01:14:43;;;;;;;3.33;1.23;;;18.10;72.90;;;;;;5013527;28;20636;-75
2023/07/07 01:17:38;;;;;;;3.10;1.53;;;18.10;73.20;;;;;;5032607;28;20988;-75
2023/07/07 01:20:13;;;;;;;3.07;1.47;;;18.10;74.30;;;;;;5030891;28;20596;-74
2023/07/07 01:23:22;;;;;;;2.97;1.40;;;18.10;74.10;;;;;;5014477;28;20962;-75
2023/07/07 01:26:09;;;;;;;3.50;1.37;;;18.20;74.70;;;;;;5013664;28;20628;-75
2023/07/07 01:28:34;;;;;;;3.60;1.30;;;18.20;74.70;;;;;;5014424;28;20749;-75
2023/07/07 01:31:13;;;;;;;2.73;1.33;;;18.20;74.60;;;;;;5030940;28;20680;-75
2023/07/07 01:33:41;;;;;;;3.30;1.80;;;18.10;75.60;;;;;;5014670;28;20201;-74
2023/07/07 01:36:06;;;;;;;2.93;1.80;;;18.10;75.60;;;;;;5031735;28;20670;-75
2023/07/07 01:38:38;;;;;;;3.70;1.50;;;18.00;76.00;;;;;;5030400;28;20600;-75
2023/07/07 01:41:15;;;;;;;2.80;1.37;;;18.00;76.50;;;;;;5031806;28;20577;-75
2023/07/07 01:44:12;;;;;;;2.30;1.13;;;18.00;77.90;;;;;;5030838;28;20576;-75
2023/07/07 01:46:43;;;;;;;2.17;1.50;;;17.90;79.30;;;;;;5031394;28;20572;-75
2023/07/07 01:49:25;;;;;;;2.50;1.10;;;17.90;79.50;;;;;;5030727;28;20591;-75
2023/07/07 01:51:54;;;;;;;2.60;1.40;;;17.80;81.10;;;;;;5029939;28;21159;-75
2023/07/07 01:54:21;;;;;;;5.00;1.50;;;17.80;82.30;;;;;;5030542;28;21151;-75
2023/07/07 01:56:48;;;;;;;2.20;1.20;;;17.80;82.30;;;;;;5013147;28;20698;-75
2023/07/07 01:59:16;;;;;;;3.47;1.20;;;17.80;82.80;;;;;;5013907;28;20595;-74
2023/07/07 02:01:43;;;;;;;2.93;1.43;;;17.80;83.30;;;;;;5013499;28;20643;-74
2023/07/07 02:04:09;;;;;;;2.67;1.20;;;17.80;83.60;;;;;;5030423;28;21112;-74
2023/07/07 02:06:35;;;;;;;2.90;1.57;;;17.80;84.10;;;;;;5028878;28;20683;-75
2023/07/07 02:09:01;;;;;;;2.70;1.30;;;17.80;84.50;;;;;;5029906;28;20272;-75
2023/07/07 02:11:26;;;;;;;2.77;1.40;;;17.80;84.80;;;;;;5029317;28;20646;-74
2023/07/07 02:13:52;;;;;;;3.17;1.30;;;17.80;85.30;;;;;;4997164;28;20604;-74
2023/07/07 02:16:18;;;;;;;5.07;1.60;;;17.80;85.80;;;;;;5030326;28;20213;-75
2023/07/07 02:18:48;;;;;;;3.33;1.40;;;17.80;86.20;;;;;;5012866;28;20972;-75
2023/07/07 02:21:17;;;;;;;3.50;1.77;;;17.70;86.50;;;;;;5013244;28;20224;-75
2023/07/07 02:23:44;;;;;;;3.23;1.40;;;17.70;87.10;;;;;;5029892;28;20639;-74
2023/07/07 02:26:18;;;;;;;3.80;1.30;;;17.70;87.50;;;;;;5031124;28;20695;-74
2023/07/07 02:28:45;;;;;;;4.90;1.67;;;17.70;88.20;;;;;;5029415;28;20576;-75
2023/07/07 02:31:17;;;;;;;3.20;1.37;;;17.60;88.60;;;;;;5067658;28;20764;-74
2023/07/07 02:33:43;;;;;;;4.63;1.37;;;17.60;89.40;;;;;;5067185;28;20567;-74
2023/07/07 02:36:11;;;;;;;2.67;1.40;;;17.60;90.00;;;;;;5066534;28;20593;-74
2023/07/07 02:38:37;;;;;;;4.70;1.70;;;17.50;90.20;;;;;;5049087;28;20701;-73
2023/07/07 02:41:03;;;;;;;3.13;1.20;;;17.50;90.50;;;;;;5066314;28;20593;-74
2023/07/07 02:43:30;;;;;;;2.33;1.20;;;17.40;90.70;;;;;;5065938;28;20637;-74
2023/07/07 02:45:56;;;;;;;2.10;1.50;;;17.40;91.00;;;;;;5067407;28;20607;-74
2023/07/07 02:48:22;;;;;;;3.30;1.37;;;17.40;91.20;;;;;;5065735;28;20180;-74
2023/07/07 02:51:01;;;;;;;3.33;1.40;;;17.30;91.50;;;;;;5049227;28;21044;-74
2023/07/07 02:53:31;;;;;;;2.00;1.10;;;17.20;92.10;;;;;;5049507;28;20622;-74
2023/07/07 02:55:57;;;;;;;3.43;1.37;;;17.20;92.00;;;;;;5048859;28;21263;-74
2023/07/07 02:58:23;;;;;;;7.33;1.30;;;17.20;92.50;;;;;;5065537;28;20586;-74
2023/07/07 03:00:49;;;;;;;2.83;1.27;;;17.20;92.60;;;;;;5065391;28;20177;-73
2023/07/07 03:03:16;;;;;;;2.70;1.20;;;17.10;92.90;;;;;;5032153;28;20975;-74
2023/07/07 03:05:42;;;;;;;3.77;1.73;;;17.10;93.10;;;;;;5065617;28;20661;-74
2023/07/07 03:08:09;;;;;;;2.10;1.10;;;17.10;93.30;;;;;;5048631;28;20583;-74
2023/07/07 03:10:36;;;;;;;2.73;1.30;;;17.10;93.80;;;;;;5065204;28;20692;-74
2023/07/07 03:13:03;;;;;;;2.20;1.13;;;17.10;94.50;;;;;;5048737;28;20704;-74
2023/07/07 03:15:38;;;;;;;3.67;1.40;;;17.00;94.80;;;;;;5064970;28;20713;-74
2023/07/07 03:18:07;;;;;;;3.67;1.40;;;17.00;94.70;;;;;;5048082;28;20611;-74
2023/07/07 03:20:33;;;;;;;2.90;1.30;;;17.10;95.00;;;;;;5048045;28;20758;-74
2023/07/07 03:22:59;;;;;;;2.60;1.30;;;17.00;95.60;;;;;;5048323;28;21002;-74
2023/07/07 03:25:26;;;;;;;4.40;1.97;;;17.00;95.70;;;;;;5064681;28;20626;-74
2023/07/07 03:27:52;;;;;;;3.30;1.20;;;17.00;95.60;;;;;;5048015;28;20598;-74
2023/07/07 03:30:34;;;;;;;3.00;1.20;;;17.00;95.70;;;;;;5048215;28;20741;-74
2023/07/07 03:33:13;;;;;;;2.10;1.20;;;16.90;96.20;;;;;;5064739;28;20674;-74
2023/07/07 03:35:39;;;;;;;3.80;1.43;;;16.90;96.20;;;;;;5048460;28;20590;-74
2023/07/07 03:38:06;;;;;;;2.90;1.97;;;16.80;96.40;;;;;;5064538;28;20641;-74
2023/07/07 03:40:32;;;;;;;3.20;1.30;;;16.80;96.50;;;;;;5065185;28;20579;-74
2023/07/07 03:42:58;;;;;;;2.40;1.23;;;16.80;96.60;;;;;;5051151;28;20287;-74
2023/07/07 03:45:25;;;;;;;2.40;1.30;;;16.80;97.00;;;;;;5051776;28;20619;-74
2023/07/07 03:47:54;;;;;;;4.23;1.73;;;16.80;96.90;;;;;;5050785;28;20591;-74
2023/07/07 03:50:21;;;;;;;2.40;1.07;;;16.70;97.00;;;;;;5034970;28;20631;-74
2023/07/07 03:52:47;;;;;;;3.30;1.27;;;16.80;97.40;;;;;;5051024;28;20567;-74
2023/07/07 03:55:14;;;;;;;2.37;1.50;;;16.70;97.30;;;;;;5051708;28;20746;-74
2023/07/07 03:57:40;;;;;;;2.57;1.17;;;16.70;97.60;;;;;;5017643;28;20571;-74
2023/07/07 04:00:07;;;;;;;2.33;1.20;;;16.70;97.70;;;;;;5033832;28;20209;-74
2023/07/07 04:02:39;;;;;;;4.13;1.20;;;16.70;97.80;;;;;;5050942;28;20599;-74
2023/07/07 04:05:05;;;;;;;2.70;1.10;;;16.70;97.90;;;;;;5051310;28;20646;-74
2023/07/07 04:07:30;;;;;;;3.13;1.00;;;16.80;98.20;;;;;;5051950;28;20176;-74
2023/07/07 04:09:56;;;;;;;2.10;1.13;;;16.80;98.60;;;;;;5051239;28;20211;-74
2023/07/07 04:12:22;;;;;;;2.53;1.20;;;16.80;98.80;;;;;;5051045;28;20322;-74
2023/07/07 04:14:48;;;;;;;3.40;1.30;;;16.80;98.70;;;;;;5050687;28;20284;-74
2023/07/07 04:17:13;;;;;;;4.90;1.40;;;16.80;98.90;;;;;;5034209;28;20188;-74
2023/07/07 04:19:39;;;;;;;4.67;1.50;;;16.80;99.20;;;;;;5050974;28;20247;-74
2023/07/07 04:22:05;;;;;;;2.90;1.13;;;16.90;99.40;;;;;;5050829;28;20169;-74
2023/07/07 04:24:31;;;;;;;2.20;1.30;;;16.90;99.30;;;;;;5050609;28;20595;-74
2023/07/07 04:26:56;;;;;;;2.13;0.90;;;16.90;99.60;;;;;;5050600;28;20602;-74
2023/07/07 04:29:22;;;;;;;3.07;1.77;;;16.90;99.30;;;;;;5050410;28;20220;-74
2023/07/07 04:31:48;;;;;;;1.80;1.10;;;17.00;99.40;;;;;;5051929;28;20176;-74
2023/07/07 04:34:15;;;;;;;1.80;1.23;;;17.00;99.90;;;;;;5050431;28;20192;-74
2023/07/07 04:36:41;;;;;;;2.00;1.10;;;17.10;99.90;;;;;;5051799;28;20165;-74
2023/07/07 04:39:07;;;;;;;2.83;0.90;;;17.20;99.90;;;;;;5051784;28;21452;-74
2023/07/07 04:41:33;;;;;;;1.93;1.00;;;17.40;99.90;;;;;;5050410;28;20630;-74
2023/07/07 04:44:00;;;;;;;3.43;1.33;;;17.50;99.90;;;;;;5050640;28;20215;-74
2023/07/07 04:46:32;;;;;;;3.37;1.47;;;17.60;99.90;;;;;;5051533;28;21492;-74
2023/07/07 04:48:59;;;;;;;2.27;1.33;;;17.80;99.90;;;;;;5033905;28;20592;-73
2023/07/07 04:51:25;;;;;;;4.90;1.40;;;17.90;99.90;;;;;;5051135;28;20584;-73
2023/07/07 04:53:50;;;;;;;4.87;1.83;;;18.00;99.70;;;;;;5048868;28;20599;-74
2023/07/07 04:56:20;;;;;;;2.67;1.20;;;18.00;99.50;;;;;;5051496;28;20699;-74
2023/07/07 04:58:51;;;;;;;2.97;1.30;;;18.10;99.50;;;;;;5033136;28;20184;-74
2023/07/07 05:01:23;;;;;;;2.00;1.00;;;18.20;99.50;;;;;;5049776;28;20617;-74
2023/07/07 05:03:54;;;;;;;3.17;1.07;;;18.30;99.90;;;;;;5050608;28;20611;-74
2023/07/07 05:06:21;;;;;;;2.63;0.93;;;18.40;99.40;;;;;;5033401;28;20658;-74
2023/07/07 05:08:47;;;;;;;2.37;1.10;;;18.50;99.40;;;;;;5051059;28;20922;-74
2023/07/07 05:11:16;;;;;;;3.13;1.47;;;18.60;99.10;;;;;;5049448;28;20635;-74
2023/07/07 05:13:42;;;;;;;2.93;1.10;;;18.60;98.70;;;;;;5050327;28;20627;-74
2023/07/07 05:16:12;;;;;;;3.77;1.60;;;18.70;98.80;;;;;;5049704;28;21030;-74
2023/07/07 05:18:39;;;;;;;6.83;1.40;;;18.70;98.60;;;;;;5051019;28;20947;-74
2023/07/07 05:21:08;;;;;;;3.80;1.57;;;18.80;98.40;;;;;;5049701;28;20960;-75
2023/07/07 05:23:35;;;;;;;2.83;1.40;;;18.90;98.30;;;;;;5049827;28;20599;-74
2023/07/07 05:26:01;;;;;;;2.53;1.10;;;19.00;98.10;;;;;;5033002;28;20618;-74
2023/07/07 05:28:26;;;;;;;2.20;1.10;;;19.10;97.90;;;;;;5049048;28;20646;-75
2023/07/07 05:30:52;;;;;;;2.37;1.67;;;19.20;97.70;;;;;;5049566;28;21193;-75
2023/07/07 05:33:20;;;;;;;2.40;1.10;;;19.30;97.50;;;;;;5049567;28;20184;-75
2023/07/07 05:35:47;;;;;;;2.60;0.90;;;19.30;97.40;;;;;;5051229;28;20611;-76
2023/07/07 05:38:13;;;;;;;2.30;1.13;;;19.30;97.20;;;;;;5048929;28;20579;-75
2023/07/07 05:40:45;;;;;;;4.50;1.10;;;19.40;97.10;;;;;;5049304;28;20644;-76
2023/07/07 05:43:15;;;;;;;2.57;1.20;;;19.50;97.00;;;;;;5049995;28;20230;-75
2023/07/07 05:45:41;;;;;;;2.20;0.90;;;19.60;96.60;;;;;;5048868;28;20746;-75
2023/07/07 05:48:08;;;;;;;2.13;1.10;;;19.60;96.00;;;;;;5048519;28;20591;-76
2023/07/07 05:50:34;;;;;;;3.63;1.63;;;19.70;96.10;;;;;;5048611;28;20670;-76
2023/07/07 05:53:01;;;;;;;1.87;0.90;;;19.80;96.10;;;;;;5048705;28;20610;-75
2023/07/07 05:55:30;;;;;;;2.60;1.10;;;19.90;96.00;;;;;;5048668;28;20614;-75
2023/07/07 05:57:56;;;;;;;5.00;1.50;;;20.10;95.80;;;;;;5029875;28;20591;-75
2023/07/07 06:00:22;;;;;;;2.83;1.03;;;20.70;96.50;;;;;;5048971;28;20618;-75
2023/07/07 06:02:48;;;;;;;2.10;1.13;;;21.40;96.80;;;;;;5048544;28;20650;-75
2023/07/07 06:05:15;;;;;;;1.80;0.80;;;22.20;96.40;;;;;;5048296;28;21244;-75
2023/07/07 06:07:41;;;;;;;1.60;0.90;;;23.10;96.60;;;;;;5048691;28;20713;-75
2023/07/07 06:10:10;;;;;;;2.10;1.00;;;23.90;95.40;;;;;;5048580;28;20742;-75
2023/07/07 06:12:36;;;;;;;3.90;1.00;;;24.70;93.90;;;;;;5048910;28;20310;-75
2023/07/07 06:15:04;;;;;;;1.97;0.80;;;25.50;93.10;;;;;;5050066;28;20608;-76
2023/07/07 06:17:29;;;;;;;2.90;1.17;;;26.30;92.60;;;;;;5049995;28;20686;-75
2023/07/07 06:19:55;;;;;;;2.60;1.07;;;27.20;92.40;;;;;;5048841;28;20695;-76
2023/07/07 06:22:21;;;;;;;6.23;0.93;;;28.00;90.00;;;;;;5048924;28;20725;-76
2023/07/07 06:24:47;;;;;;;2.20;0.90;;;28.70;89.80;;;;;;5048320;28;20283;-76
2023/07/07 06:27:13;;;;;;;2.27;0.73;;;29.40;81.20;;;;;;5048369;28;20169;-76
2023/07/07 06:29:38;;;;;;;1.93;0.80;;;29.80;74.90;;;;;;5049746;28;20750;-76
2023/07/07 06:32:04;;;;;;;3.60;1.00;;;30.00;71.80;;;;;;5048506;28;21081;-76
2023/07/07 06:34:30;;;;;;;3.00;0.93;;;30.50;69.50;;;;;;5049983;28;20218;-76
2023/07/07 06:36:56;;;;;;;1.70;0.80;;;30.70;66.30;;;;;;5031279;28;20559;-76
2023/07/07 06:39:22;;;;;;;3.33;0.80;;;31.00;64.10;;;;;;5049663;28;20193;-76
2023/07/07 06:41:47;;;;;;;2.57;0.90;;;31.20;64.00;;;;;;5047826;28;20184;-77
2023/07/07 06:44:13;;;;;;;1.50;0.70;;;31.70;61.40;;;;;;5048361;28;20176;-77
2023/07/07 06:46:39;;;;;;;3.22;1.20;;;32.10;59.00;;;;;;5030325;28;20729;-77
2023/07/07 06:49:05;;;;;;;2.00;0.97;;;32.40;51.50;;;;;;5048114;28;20661;-76
2023/07/07 06:51:31;;;;;;;1.70;0.80;;;32.50;54.40;;;;;;5047082;28;20171;-77
2023/07/07 06:53:59;;;;;;;1.70;0.70;;;32.60;53.70;;;;;;5049399;28;20538;-77
2023/07/07 06:56:24;;;;;;;2.03;0.77;;;33.00;54.80;;;;;;5048008;28;20611;-77
2023/07/07 06:58:50;;;;;;;3.37;0.80;;;33.20;54.00;;;;;;5048223;28;20623;-76
2023/07/07 07:01:16;;;;;;;2.70;1.00;;;33.50;53.40;;;;;;5047904;28;20181;-77
2023/07/07 07:03:43;;;;;;;2.20;0.90;;;33.60;52.70;;;;;;5049542;28;20286;-77
2023/07/07 07:06:10;;;;;;;2.50;0.80;;;33.80;52.00;;;;;;5049650;28;20596;-77
2023/07/07 07:08:36;;;;;;;2.40;1.50;;;34.20;52.40;;;;;;5047990;28;20575;-77
2023/07/07 07:11:02;;;;;;;1.53;0.70;;;34.90;52.50;;;;;;5049787;28;20669;-76
2023/07/07 07:13:27;;;;;;;2.17;0.97;;;35.50;51.90;;;;;;5049331;28;20173;-76
2023/07/07 07:15:54;;;;;;;4.90;0.90;;;35.90;49.90;;;;;;5048733;28;20217;-76
2023/07/07 07:18:20;;;;;;;2.20;0.83;;;36.00;48.10;;;;;;5051542;28;20177;-77
2023/07/07 07:20:49;;;;;;;2.60;0.90;;;36.10;47.30;;;;;;5053546;28;20587;-77
2023/07/07 07:23:15;;;;;;;1.50;0.77;;;36.10;46.00;;;;;;5052582;28;20586;-76
2023/07/07 07:25:43;;;;;;;5.13;1.00;;;36.50;45.60;;;;;;5053174;28;20623;-77
2023/07/07 07:28:09;;;;;;;1.40;0.60;;;36.40;44.10;;;;;;5051398;28;20636;-77
2023/07/07 07:30:35;;;;;;;2.50;0.90;;;36.30;43.10;;;;;;5051446;28;20744;-77
2023/07/07 07:33:04;;;;;;;3.43;0.70;;;36.10;40.60;;;;;;5051633;28;20165;-77
2023/07/07 07:35:30;;;;;;;2.33;0.80;;;36.00;41.80;;;;;;5051864;28;20193;-76
2023/07/07 07:37:56;;;;;;;1.70;0.80;;;36.20;42.40;;;;;;5050829;28;20951;-78
2023/07/07 07:40:23;;;;;;;1.70;0.70;;;36.40;42.30;;;;;;5046398;28;20173;-78
2023/07/07 07:42:52;;;;;;;2.70;0.80;;;36.60;42.70;;;;;;5043400;28;20185;-78
2023/07/07 07:45:21;;;;;;;2.10;0.90;;;36.80;42.50;;;;;;5051661;28;20619;-78
2023/07/07 07:47:47;;;;;;;2.10;0.80;;;37.20;41.80;;;;;;5051117;28;20696;-77
2023/07/07 07:50:15;;;;;;;2.17;0.70;;;37.00;40.90;;;;;;5052091;28;21263;-77
2023/07/07 07:52:41;;;;;;;5.13;0.80;;;36.60;40.10;;;;;;5049973;28;20674;-78
2023/07/07 07:55:07;;;;;;;2.20;0.93;;;36.30;39.30;;;;;;5036947;28;20603;-77
2023/07/07 07:57:33;;;;;;;2.03;0.90;;;36.20;40.60;;;;;;5033470;28;20618;-78
2023/07/07 07:59:59;;;;;;;3.03;0.80;;;36.30;39.90;;;;;;5050166;28;20974;-78
2023/07/07 08:02:24;;;;;;;1.80;0.67;;;36.70;40.70;;;;;;5052515;28;20185;-78
2023/07/07 08:04:50;;;;;;;1.90;0.80;;;37.00;40.70;;;;;;5050978;28;20619;-78
2023/07/07 08:07:16;;;;;;;4.17;0.73;;;37.50;40.30;;;;;;5050836;28;20205;-77
2023/07/07 08:09:42;;;;;;;3.40;0.93;;;37.60;39.30;;;;;;5052284;28;20636;-77
2023/07/07 08:12:09;;;;;;;2.23;0.80;;;37.80;40.10;;;;;;5034539;28;20177;-78
2023/07/07 08:14:35;;;;;;;2.80;0.77;;;38.10;39.10;;;;;;5052505;28;20225;-78
2023/07/07 08:17:11;;;;;;;1.80;0.80;;;38.20;38.40;;;;;;5050238;28;20618;-78
2023/07/07 08:19:38;;;;;;;3.57;0.80;;;38.10;37.20;;;;;;5034366;28;20640;-78
2023/07/07 08:22:07;;;;;;;4.03;0.70;;;37.90;37.50;;;;;;5051964;28;20592;-78
2023/07/07 08:24:47;;;;;;;1.70;0.90;;;38.00;38.40;;;;;;5034603;28;20615;-78
2023/07/07 08:27:13;;;;;;;1.83;0.77;;;38.30;38.30;;;;;;5033613;28;21197;-78
2023/07/07 08:29:40;;;;;;;2.13;0.67;;;38.80;38.70;;;;;;5034420;28;21061;-78
2023/07/07 08:32:08;;;;;;;1.97;0.90;;;39.20;38.10;;;;;;5054236;28;20579;-78
2023/07/07 08:34:34;;;;;;;2.80;0.80;;;39.50;37.10;;;;;;5052460;28;20612;-78
2023/07/07 08:37:00;;;;;;;1.57;0.90;;;39.40;35.60;;;;;;5050132;28;20584;-78
2023/07/07 08:39:29;;;;;;;3.07;0.90;;;39.10;34.90;;;;;;5050498;28;20173;-78
2023/07/07 08:41:59;;;;;;;1.70;0.93;;;39.00;34.90;;;;;;5050100;28;20579;-78
2023/07/07 08:44:26;;;;;;;2.27;0.80;;;39.00;34.70;;;;;;5051998;28;21301;-78
2023/07/07 08:47:07;;;;;;;1.43;0.80;;;38.90;34.30;;;;;;5030310;28;20595;-78
2023/07/07 08:49:53;;;;;;;2.60;0.80;;;38.80;34.50;;;;;;5031260;28;20724;-78
2023/07/07 08:52:44;;;;;;;1.60;0.80;;;38.80;34.20;;;;;;5049890;28;20971;-78
2023/07/07 08:55:34;;;;;;;6.53;0.80;;;38.60;34.60;;;;;;5051574;28;20693;-78
2023/07/07 08:58:32;;;;;;;1.50;0.90;;;38.80;32.60;;;;;;5043493;28;20567;-78
2023/07/07 09:01:25;;;;;;;1.77;0.87;;;39.10;35.40;;;;;;5036696;28;20583;-77
2023/07/07 09:04:04;;;;;;;2.73;0.90;;;39.00;33.80;;;;;;5016677;28;20563;-77
2023/07/07 09:06:38;;;;;;;2.37;0.97;;;39.10;33.80;;;;;;5050330;28;20611;-78
2023/07/07 09:09:26;;;;;;;2.23;0.80;;;39.20;33.50;;;;;;5055166;28;20579;-78
2023/07/07 09:12:24;;;;;;;2.07;0.90;;;39.40;34.20;;;;;;5030245;28;20659;-78
2023/07/07 09:14:53;;;;;;;2.10;0.90;;;39.80;33.70;;;;;;5013919;28;20612;-78
2023/07/07 09:17:40;;;;;;;2.10;0.90;;;40.00;33.40;;;;;;5031127;28;20578;-79
2023/07/07 09:20:08;;;;;;;2.50;1.00;;;40.30;33.00;;;;;;5013900;28;20596;-78
2023/07/07 09:22:45;;;;;;;3.30;0.90;;;40.20;31.80;;;;;;5013585;28;20576;-79
2023/07/07 09:25:40;;;;;;;1.87;0.83;;;40.00;31.00;;;;;;5030119;28;20616;-79
2023/07/07 09:28:10;;;;;;;1.90;1.00;;;40.00;31.70;;;;;;5012863;28;20597;-79
2023/07/07 09:30:44;;;;;;;1.90;0.83;;;40.00;30.90;;;;;;5030021;28;20636;-79
2023/07/07 09:33:16;;;;;;;1.83;0.80;;;40.00;31.40;;;;;;5029334;28;20592;-78
2023/07/07 09:35:59;;;;;;;2.53;1.13;;;40.00;30.70;;;;;;5030013;28;20605;-78
2023/07/07 09:38:49;;;;;;;2.37;1.10;;;39.70;29.90;;;;;;5045653;28;20627;-79
2023/07/07 09:41:40;;;;;;;1.87;0.97;;;39.10;29.70;;;;;;5029480;28;20637;-79
2023/07/07 09:44:05;;;;;;;2.00;0.90;;;39.00;30.40;;;;;;5043786;28;20602;-79
2023/07/07 09:46:40;;;;;;;4.30;1.03;;;38.90;30.00;;;;;;5053694;28;20583;-79
2023/07/07 09:49:14;;;;;;;1.90;1.03;;;38.90;29.90;;;;;;5049225;28;20176;-78
2023/07/07 09:51:46;;;;;;;2.37;0.87;;;38.80;30.00;;;;;;5050618;28;20872;-78
2023/07/07 09:54:15;;;;;;;2.27;1.10;;;38.90;29.80;;;;;;5049163;28;20587;-78
2023/07/07 09:57:09;;;;;;;1.70;0.97;;;39.00;29.80;;;;;;5032614;28;20584;-78
2023/07/07 09:59:41;;;;;;;2.50;0.93;;;39.20;30.00;;;;;;5032839;28;20690;-78
2023/07/07 10:02:17;;;;;;;1.70;0.80;;;39.80;30.00;;;;;;5050560;28;20621;-78
2023/07/07 10:04:47;;;;;;;2.00;1.00;;;40.00;29.20;;;;;;5032667;28;20621;-78
2023/07/07 10:07:15;;;;;;;5.63;1.10;;;40.20;28.90;;;;;;5048832;28;20623;-78
2023/07/07 10:09:42;;;;;;;2.17;0.90;;;40.30;28.00;;;;;;5050145;28;20607;-78
2023/07/07 10:12:16;;;;;;;3.40;1.30;;;40.30;28.50;;;;;;5050194;28;21195;-78
2023/07/07 10:14:43;;;;;;;4.40;1.10;;;40.10;27.70;;;;;;5049178;28;20661;-78
2023/07/07 10:17:09;;;;;;;2.73;1.23;;;39.40;26.80;;;;;;5048369;28;20587;-78
2023/07/07 10:19:50;;;;;;;2.07;0.90;;;38.70;26.70;;;;;;5049098;28;21208;-78
2023/07/07 10:22:16;;;;;;;1.70;1.00;;;38.40;27.60;;;;;;5035251;28;20184;-78
2023/07/07 10:24:43;;;;;;;1.70;1.03;;;38.20;27.70;;;;;;5049366;28;21281;-78
2023/07/07 10:27:15;;;;;;;5.30;1.10;;;38.10;27.90;;;;;;5048341;28;20626;-78
2023/07/07 10:29:43;;;;;;;2.00;1.30;;;38.20;28.00;;;;;;5050038;28;20627;-78
2023/07/07 10:32:21;;;;;;;1.70;1.03;;;37.80;26.80;;;;;;5048137;28;21212;-76
2023/07/07 10:34:49;;;;;;;6.00;1.17;;;37.50;27.00;;;;;;5049002;28;20607;-77
2023/07/07 10:37:29;;;;;;;1.60;0.90;;;37.40;27.80;;;;;;5048112;28;20599;-77
2023/07/07 10:39:57;;;;;;;2.47;0.87;;;37.70;27.90;;;;;;5032353;28;20599;-77
2023/07/07 10:42:24;;;;;;;2.50;1.33;;;38.00;28.10;;;;;;5049483;28;20622;-77
2023/07/07 10:44:52;;;;;;;1.60;0.80;;;38.40;28.40;;;;;;5048637;28;20619;-77
2023/07/07 10:47:20;;;;;;;3.40;1.80;;;38.60;27.80;;;;;;5031631;28;20579;-76
2023/07/07 10:49:47;;;;;;;2.00;1.00;;;38.60;27.50;;;;;;5048853;28;20665;-77
2023/07/07 10:52:22;;;;;;;3.23;1.63;;;38.70;27.70;;;;;;5051727;28;20571;-77
2023/07/07 10:55:09;;;;;;;2.20;1.30;;;38.70;27.30;;;;;;5054278;28;20713;-77
2023/07/07 10:58:10;;;;;;;2.00;0.97;;;38.30;27.10;;;;;;5053495;28;20571;-78
2023/07/07 11:00:56;;;;;;;1.70;0.87;;;38.20;27.60;;;;;;5037104;28;21078;-77
2023/07/07 11:03:59;;;;;;;7.93;1.20;;;38.10;27.60;;;;;;5035393;28;20583;-77
2023/07/07 11:06:37;;;;;;;1.83;0.80;;;38.00;27.60;;;;;;5052663;28;20666;-77
2023/07/07 11:09:47;;;;;;;2.13;0.90;;;38.00;27.40;;;;;;5052392;28;20583;-77
2023/07/07 11:12:46;;;;;;;2.30;1.47;;;38.10;28.40;;;;;;5053309;28;20634;-77
2023/07/07 11:15:45;;;;;;;2.53;0.90;;;38.50;28.50;;;;;;5052263;28;20595;-77
2023/07/07 11:18:25;;;;;;;5.00;1.60;;;38.70;28.00;;;;;;5052925;28;20563;-77
2023/07/07 11:21:19;;;;;;;2.43;1.40;;;38.60;27.30;;;;;;5052290;28;20949;-77
2023/07/07 11:24:24;;;;;;;2.27;1.43;;;38.10;27.00;;;;;;5044742;28;20579;-76
2023/07/07 11:26:56;;;;;;;2.40;1.13;;;37.50;26.40;;;;;;5051606;28;20575;-77
2023/07/07 11:29:42;;;;;;;1.97;1.07;;;37.20;26.90;;;;;;5052905;28;20583;-77
2023/07/07 11:32:22;;;;;;;2.00;0.97;;;36.90;27.30;;;;;;5034931;28;21107;-77
2023/07/07 11:35:12;;;;;;;2.93;1.10;;;36.90;27.70;;;;;;5054689;28;20637;-77
2023/07/07 11:37:38;;;;;;;3.17;1.10;;;37.00;27.60;;;;;;5052145;28;20582;-76
2023/07/07 11:40:33;;;;;;;2.50;1.10;;;37.00;27.90;;;;;;5052957;28;20575;-76
2023/07/07 11:43:04;;;;;;;2.80;1.10;;;37.20;27.60;;;;;;5068666;28;20231;-79
2023/07/07 11:46:07;;;;;;;1.80;0.93;;;37.00;27.50;;;;;;5077240;28;20607;-79
2023/07/07 11:49:15;;;;;;;1.90;1.20;;;36.90;27.40;;;;;;5060938;28;20590;-79
2023/07/07 11:51:56;;;;;;;3.00;1.00;;;36.90;27.70;;;;;;5078049;28;20563;-79
2023/07/07 11:54:32;;;;;;;2.30;0.83;;;37.20;27.80;;;;;;5076739;28;20605;-79
2023/07/07 11:57:04;;;;;;;2.20;1.23;;;37.20;27.30;;;;;;5077766;28;20611;-80
2023/07/07 11:59:58;;;;;;;2.67;1.20;;;37.30;27.20;;;;;;5077695;28;20643;-79
2023/07/07 12:02:32;;;;;;;1.90;0.90;;;37.30;27.20;;;;;;5077070;28;20579;-79
2023/07/07 12:05:01;;;;;;;2.37;1.30;;;37.30;26.70;;;;;;5078143;28;20595;-80
2023/07/07 12:07:44;;;;;;;2.57;1.10;;;37.20;26.80;;;;;;5076527;28;20626;-79
2023/07/07 12:10:22;;;;;;;2.10;0.80;;;37.00;26.00;;;;;;5069215;28;20623;-79
2023/07/07 12:12:58;;;;;;;2.13;1.20;;;36.70;26.40;;;;;;5070292;28;20591;-81
2023/07/07 12:15:31;;;;;;;2.93;1.00;;;36.50;26.40;;;;;;5071815;28;20623;-81
2023/07/07 12:18:03;;;;;;;2.13;1.20;;;36.10;26.50;;;;;;5073120;28;20591;-81
2023/07/07 12:20:36;;;;;;;2.07;1.03;;;36.00;26.80;;;;;;5072286;28;20634;-81
2023/07/07 12:23:04;;;;;;;3.07;1.00;;;35.80;26.90;;;;;;5071900;28;20611;-81
2023/07/07 12:25:30;;;;;;;2.17;1.10;;;35.70;26.90;;;;;;5064236;28;20603;-81
2023/07/07 12:27:57;;;;;;;2.93;1.10;;;35.40;26.70;;;;;;5028164;28;20648;-81
2023/07/07 12:30:46;;;;;;;3.13;1.20;;;35.20;26.70;;;;;;5065742;28;20185;-81
2023/07/07 12:33:13;;;;;;;1.90;0.87;;;35.00;26.80;;;;;;5065462;28;20576;-81
2023/07/07 12:35:53;;;;;;;1.70;0.90;;;35.10;27.30;;;;;;5064016;28;20625;-81
2023/07/07 12:38:33;;;;;;;4.23;1.00;;;35.00;27.20;;;;;;5064699;28;20583;-81
2023/07/07 12:41:13;;;;;;;2.67;0.90;;;35.00;27.20;;;;;;5064822;28;20623;-81
2023/07/07 12:43:50;;;;;;;2.07;1.30;;;35.10;27.30;;;;;;5061569;28;20579;-81
2023/07/07 12:46:33;;;;;;;2.30;1.20;;;35.00;27.00;;;;;;5042563;28;20603;-81
2023/07/07 12:49:43;;;;;;;1.80;0.90;;;34.80;26.60;;;;;;5043459;28;20986;-81
2023/07/07 12:52:12;;;;;;;2.20;1.50;;;34.50;26.60;;;;;;5042481;28;20588;-81
2023/07/07 12:54:37;;;;;;;1.83;1.07;;;34.20;26.80;;;;;;5059748;28;20618;-80
2023/07/07 12:57:27;;;;;;;2.90;0.90;;;34.00;26.80;;;;;;5063820;28;20610;-81
2023/07/07 12:59:52;;;;;;;2.63;1.10;;;33.80;27.10;;;;;;5047075;28;20209;-80
2023/07/07 13:02:25;;;;;;;2.10;1.17;;;33.70;27.20;;;;;;5060618;28;20659;-81
2023/07/07 13:05:00;;;;;;;2.10;1.00;;;33.50;27.70;;;;;;5060430;28;20203;-81
2023/07/07 13:07:29;;;;;;;3.83;1.87;;;33.40;27.80;;;;;;5062759;28;20577;-81
2023/07/07 13:09:55;;;;;;;1.97;1.10;;;33.20;28.00;;;;;;5055940;28;20583;-80